sensor_id;sensor_type;location;lat;lon;timestamp;temperature;humidity
37938;DHT22;23763;48.130;11.602;2023-05-17T00:00:45;10.30;99.90
37938;DHT22;23763;48.130;11.602;2023-05-17T00:03:10;10.30;99.90
37938;DHT22;23763;48.130;11.602;2023-05-17T00:05:36;10.30;99.90
37938;DHT22;23763;48.130;11.602;2023-05-17T00:08:01;10.20;99.90
37938;DHT22;23763;48.130;11.602;2023-05-17T00:10:27;10.20;99.90
37938;DHT22;23763;48.130;11.602;2023-05-17T00:12:53;10.20;99.90
37938;DHT22;23763;48.130;11.602;2023-05-17T00:15:18;10.20;99.90
37938;DHT22;23763;48.130;11.602;2023-05-17T00:17:44;10.20;99.90
37938;DHT22;23763;48.130;11.602;2023-05-17T00:20:10;10.20;99.90
37938;DHT22;23763;48.130;11.602;2023-05-17T00:22:35;10.20;99.90
37938;DHT22;23763;48.130;11.602;2023-05-17T00:25:01;10.20;99.90
37938;DHT22;23763;48.130;11.602;2023-05-17T00:27:27;10.20;99.90
37938;DHT22;23763;48.130;11.602;2023-05-17T00:29:53;10.20;99.90
37938;DHT22;23763;48.130;11.602;2023-05-17T00:32:18;10.20;99.90
37938;DHT22;23763;48.130;11.602;2023-05-17T00:34:44;10.30;99.90
37938;DHT22;23763;48.130;11.602;2023-05-17T00:37:09;10.20;99.90
37938;DHT22;23763;48.130;11.602;2023-05-17T00:39:35;10.20;99.90
37938;DHT22;23763;48.130;11.602;2023-05-17T00:42:00;10.20;99.90
37938;DHT22;23763;48.130;11.602;2023-05-17T00:44:26;10.20;99.90
37938;DHT22;23763;48.130;11.602;2023-05-17T00:46:52;10.20;99.90
37938;DHT22;23763;48.130;11.602;2023-05-17T00:49:18;10.20;99.90
37938;DHT22;23763;48.130;11.602;2023-05-17T00:51:44;10.10;99.90
37938;DHT22;23763;48.130;11.602;2023-05-17T00:54:10;10.10;99.90
37938;DHT22;23763;48.130;11.602;2023-05-17T00:56:36;10.10;99.90
37938;DHT22;23763;48.130;11.602;2023-05-17T00:59:04;10.10;99.90
37938;DHT22;23763;48.130;11.602;2023-05-17T01:01:31;10.10;99.90
37938;DHT22;23763;48.130;11.602;2023-05-17T01:03:57;10.10;99.90
37938;DHT22;23763;48.130;11.602;2023-05-17T01:06:23;10.10;99.90
37938;DHT22;23763;48.130;11.602;2023-05-17T01:08:48;10.10;99.90
37938;DHT22;23763;48.130;11.602;2023-05-17T01:11:41;10.20;99.90
37938;DHT22;23763;48.130;11.602;2023-05-17T01:14:46;10.10;99.90
37938;DHT22;23763;48.130;11.602;2023-05-17T01:20:17;10.10;99.90
37938;DHT22;23763;48.130;11.602;2023-05-17T01:28:24;10.00;99.90
37938;DHT22;23763;48.130;11.602;2023-05-17T01:30:51;9.90;99.90
37938;DHT22;23763;48.130;11.602;2023-05-17T01:33:18;9.90;99.90
37938;DHT22;23763;48.130;11.602;2023-05-17T01:35:44;9.90;99.90
37938;DHT22;23763;48.130;11.602;2023-05-17T01:38:10;10.00;99.90
37938;DHT22;23763;48.130;11.602;2023-05-17T01:40:43;10.00;99.90
37938;DHT22;23763;48.130;11.602;2023-05-17T01:43:20;10.00;99.90
37938;DHT22;23763;48.130;11.602;2023-05-17T01:45:55;9.90;99.90
37938;DHT22;23763;48.130;11.602;2023-05-17T01:48:29;9.90;99.90
37938;DHT22;23763;48.130;11.602;2023-05-17T01:50:57;9.90;99.90
37938;DHT22;23763;48.130;11.602;2023-05-17T01:53:35;9.90;99.90
37938;DHT22;23763;48.130;11.602;2023-05-17T01:56:25;9.90;99.90
37938;DHT22;23763;48.130;11.602;2023-05-17T01:58:52;9.80;99.90
37938;DHT22;23763;48.130;11.602;2023-05-17T02:01:18;9.90;99.90
37938;DHT22;23763;48.130;11.602;2023-05-17T02:03:49;9.80;99.90
37938;DHT22;23763;48.130;11.602;2023-05-17T02:06:15;9.80;99.90
37938;DHT22;23763;48.130;11.602;2023-05-17T02:08:41;9.80;99.90
37938;DHT22;23763;48.130;11.602;2023-05-17T02:11:07;9.80;99.90
37938;DHT22;23763;48.130;11.602;2023-05-17T02:13:32;9.70;99.90
37938;DHT22;23763;48.130;11.602;2023-05-17T02:16:04;9.70;99.90
37938;DHT22;23763;48.130;11.602;2023-05-17T02:18:31;9.80;99.90
37938;DHT22;23763;48.130;11.602;2023-05-17T02:21:02;9.80;99.90
37938;DHT22;23763;48.130;11.602;2023-05-17T02:23:28;9.70;99.90
37938;DHT22;23763;48.130;11.602;2023-05-17T02:25:54;9.80;99.90
37938;DHT22;23763;48.130;11.602;2023-05-17T02:28:19;9.70;99.90
37938;DHT22;23763;48.130;11.602;2023-05-17T02:30:45;9.70;99.90
37938;DHT22;23763;48.130;11.602;2023-05-17T02:33:10;9.80;99.90
37938;DHT22;23763;48.130;11.602;2023-05-17T02:35:36;9.60;99.90
37938;DHT22;23763;48.130;11.602;2023-05-17T02:38:02;9.70;99.90
37938;DHT22;23763;48.130;11.602;2023-05-17T02:40:27;9.70;99.90
37938;DHT22;23763;48.130;11.602;2023-05-17T02:42:53;9.70;99.90
37938;DHT22;23763;48.130;11.602;2023-05-17T02:45:18;9.70;99.90
37938;DHT22;23763;48.130;11.602;2023-05-17T02:47:44;9.80;99.90
37938;DHT22;23763;48.130;11.602;2023-05-17T02:50:09;9.70;99.90
37938;DHT22;23763;48.130;11.602;2023-05-17T02:52:35;9.70;99.90
37938;DHT22;23763;48.130;11.602;2023-05-17T02:55:01;9.70;99.90
37938;DHT22;23763;48.130;11.602;2023-05-17T02:57:27;9.70;99.90
37938;DHT22;23763;48.130;11.602;2023-05-17T02:59:52;9.60;99.90
37938;DHT22;23763;48.130;11.602;2023-05-17T03:02:18;9.70;99.90
37938;DHT22;23763;48.130;11.602;2023-05-17T03:04:43;9.70;99.90
37938;DHT22;23763;48.130;11.602;2023-05-17T03:07:09;9.60;99.90
37938;DHT22;23763;48.130;11.602;2023-05-17T03:09:35;9.60;99.90
37938;DHT22;23763;48.130;11.602;2023-05-17T03:12:01;9.50;99.90
37938;DHT22;23763;48.130;11.602;2023-05-17T03:14:27;9.50;99.90
37938;DHT22;23763;48.130;11.602;2023-05-17T03:16:52;9.40;99.90
37938;DHT22;23763;48.130;11.602;2023-05-17T03:19:18;9.50;99.90
37938;DHT22;23763;48.130;11.602;2023-05-17T03:21:43;9.50;99.90
37938;DHT22;23763;48.130;11.602;2023-05-17T03:24:09;9.50;99.90
37938;DHT22;23763;48.130;11.602;2023-05-17T03:26:35;9.50;99.90
37938;DHT22;23763;48.130;11.602;2023-05-17T03:29:00;9.50;99.90
37938;DHT22;23763;48.130;11.602;2023-05-17T03:31:26;9.50;99.90
37938;DHT22;23763;48.130;11.602;2023-05-17T03:33:52;9.40;99.90
37938;DHT22;23763;48.130;11.602;2023-05-17T03:36:17;9.40;99.90
37938;DHT22;23763;48.130;11.602;2023-05-17T03:38:43;9.40;99.90
37938;DHT22;23763;48.130;11.602;2023-05-17T03:41:09;9.30;99.90
37938;DHT22;23763;48.130;11.602;2023-05-17T03:43:35;9.40;99.90
37938;DHT22;23763;48.130;11.602;2023-05-17T03:46:00;9.40;99.90
37938;DHT22;23763;48.130;11.602;2023-05-17T03:48:26;9.30;99.90
37938;DHT22;23763;48.130;11.602;2023-05-17T03:50:52;9.30;99.90
37938;DHT22;23763;48.130;11.602;2023-05-17T03:53:17;9.30;99.90
37938;DHT22;23763;48.130;11.602;2023-05-17T03:55:43;9.20;99.90
37938;DHT22;23763;48.130;11.602;2023-05-17T03:58:08;9.30;99.90
37938;DHT22;23763;48.130;11.602;2023-05-17T04:00:34;9.20;99.90
37938;DHT22;23763;48.130;11.602;2023-05-17T04:03:00;9.20;99.90
37938;DHT22;23763;48.130;11.602;2023-05-17T04:05:26;9.10;99.90
37938;DHT22;23763;48.130;11.602;2023-05-17T04:07:52;9.20;99.90
37938;DHT22;23763;48.130;11.602;2023-05-17T04:10:18;9.30;99.90
37938;DHT22;23763;48.130;11.602;2023-05-17T04:12:43;9.20;99.90
37938;DHT22;23763;48.130;11.602;2023-05-17T04:15:09;9.20;99.90
37938;DHT22;23763;48.130;11.602;2023-05-17T04:17:35;9.20;99.90
37938;DHT22;23763;48.130;11.602;2023-05-17T04:20:01;9.30;99.90
37938;DHT22;23763;48.130;11.602;2023-05-17T04:22:26;9.30;99.90
37938;DHT22;23763;48.130;11.602;2023-05-17T04:24:52;9.30;99.90
37938;DHT22;23763;48.130;11.602;2023-05-17T04:27:17;9.30;99.90
37938;DHT22;23763;48.130;11.602;2023-05-17T04:29:43;9.40;99.90
37938;DHT22;23763;48.130;11.602;2023-05-17T04:32:09;9.40;99.90
37938;DHT22;23763;48.130;11.602;2023-05-17T04:34:35;9.40;99.90
37938;DHT22;23763;48.130;11.602;2023-05-17T04:37:01;9.40;99.90
37938;DHT22;23763;48.130;11.602;2023-05-17T04:39:26;9.40;99.90
37938;DHT22;23763;48.130;11.602;2023-05-17T04:41:52;9.50;99.90
37938;DHT22;23763;48.130;11.602;2023-05-17T04:44:18;9.50;99.90
37938;DHT22;23763;48.130;11.602;2023-05-17T04:46:43;9.50;99.90
37938;DHT22;23763;48.130;11.602;2023-05-17T04:49:10;9.60;99.90
37938;DHT22;23763;48.130;11.602;2023-05-17T04:51:35;9.60;99.90
37938;DHT22;23763;48.130;11.602;2023-05-17T04:54:01;9.40;99.90
37938;DHT22;23763;48.130;11.602;2023-05-17T04:56:32;9.50;99.90
37938;DHT22;23763;48.130;11.602;2023-05-17T04:58:57;9.50;99.90
37938;DHT22;23763;48.130;11.602;2023-05-17T05:01:23;9.50;99.90
37938;DHT22;23763;48.130;11.602;2023-05-17T05:03:48;9.60;99.90
37938;DHT22;23763;48.130;11.602;2023-05-17T05:06:14;9.70;99.90
37938;DHT22;23763;48.130;11.602;2023-05-17T05:08:40;9.80;99.90
37938;DHT22;23763;48.130;11.602;2023-05-17T05:11:06;10.00;99.90
37938;DHT22;23763;48.130;11.602;2023-05-17T05:13:32;10.00;99.90
37938;DHT22;23763;48.130;11.602;2023-05-17T05:15:57;10.00;99.90
37938;DHT22;23763;48.130;11.602;2023-05-17T05:18:23;10.20;99.90
37938;DHT22;23763;48.130;11.602;2023-05-17T05:20:49;10.10;99.90
37938;DHT22;23763;48.130;11.602;2023-05-17T05:23:14;10.30;99.90
37938;DHT22;23763;48.130;11.602;2023-05-17T05:25:41;10.60;99.90
37938;DHT22;23763;48.130;11.602;2023-05-17T05:28:07;10.70;99.90
37938;DHT22;23763;48.130;11.602;2023-05-17T05:30:33;10.80;99.90
37938;DHT22;23763;48.130;11.602;2023-05-17T05:32:58;10.90;99.90
37938;DHT22;23763;48.130;11.602;2023-05-17T05:35:24;11.00;99.90
37938;DHT22;23763;48.130;11.602;2023-05-17T05:37:54;11.20;99.90
37938;DHT22;23763;48.130;11.602;2023-05-17T05:40:20;11.50;99.90
37938;DHT22;23763;48.130;11.602;2023-05-17T05:42:46;11.60;99.90
37938;DHT22;23763;48.130;11.602;2023-05-17T05:45:11;12.10;99.90
37938;DHT22;23763;48.130;11.602;2023-05-17T05:47:37;12.40;99.90
37938;DHT22;23763;48.130;11.602;2023-05-17T05:50:04;12.40;99.90
37938;DHT22;23763;48.130;11.602;2023-05-17T05:52:29;12.70;99.90
37938;DHT22;23763;48.130;11.602;2023-05-17T05:54:55;13.00;99.90
37938;DHT22;23763;48.130;11.602;2023-05-17T05:57:21;13.00;99.90
37938;DHT22;23763;48.130;11.602;2023-05-17T05:59:46;13.20;99.90
37938;DHT22;23763;48.130;11.602;2023-05-17T06:02:12;13.30;99.90
37938;DHT22;23763;48.130;11.602;2023-05-17T06:04:37;13.40;99.90
37938;DHT22;23763;48.130;11.602;2023-05-17T06:07:03;13.50;99.90
37938;DHT22;23763;48.130;11.602;2023-05-17T06:09:29;13.60;99.90
37938;DHT22;23763;48.130;11.602;2023-05-17T06:11:54;13.40;99.90
37938;DHT22;23763;48.130;11.602;2023-05-17T06:14:20;13.50;99.90
37938;DHT22;23763;48.130;11.602;2023-05-17T06:16:46;13.40;99.90
37938;DHT22;23763;48.130;11.602;2023-05-17T06:19:13;13.30;99.90
37938;DHT22;23763;48.130;11.602;2023-05-17T06:21:38;13.10;99.90
37938;DHT22;23763;48.130;11.602;2023-05-17T06:24:05;13.20;99.90
37938;DHT22;23763;48.130;11.602;2023-05-17T06:26:31;13.20;99.90
37938;DHT22;23763;48.130;11.602;2023-05-17T06:28:56;13.60;99.90
37938;DHT22;23763;48.130;11.602;2023-05-17T06:31:22;13.80;99.90
37938;DHT22;23763;48.130;11.602;2023-05-17T06:33:47;13.80;99.90
37938;DHT22;23763;48.130;11.602;2023-05-17T06:36:13;14.00;99.90
37938;DHT22;23763;48.130;11.602;2023-05-17T06:38:38;13.90;99.90
37938;DHT22;23763;48.130;11.602;2023-05-17T06:41:04;14.20;99.90
37938;DHT22;23763;48.130;11.602;2023-05-17T06:43:30;14.30;99.90
37938;DHT22;23763;48.130;11.602;2023-05-17T06:45:56;13.90;99.90
37938;DHT22;23763;48.130;11.602;2023-05-17T06:48:22;14.20;99.90
37938;DHT22;23763;48.130;11.602;2023-05-17T06:50:48;14.20;99.90
37938;DHT22;23763;48.130;11.602;2023-05-17T06:53:14;14.50;99.90
37938;DHT22;23763;48.130;11.602;2023-05-17T06:55:39;15.00;99.90
37938;DHT22;23763;48.130;11.602;2023-05-17T06:58:05;15.00;99.90
37938;DHT22;23763;48.130;11.602;2023-05-17T07:00:31;15.40;99.90
37938;DHT22;23763;48.130;11.602;2023-05-17T07:02:57;15.70;99.90
37938;DHT22;23763;48.130;11.602;2023-05-17T07:05:22;15.80;99.90
37938;DHT22;23763;48.130;11.602;2023-05-17T07:07:48;15.10;99.90
37938;DHT22;23763;48.130;11.602;2023-05-17T07:10:14;14.90;99.90
37938;DHT22;23763;48.130;11.602;2023-05-17T07:12:40;14.90;99.90
37938;DHT22;23763;48.130;11.602;2023-05-17T07:15:06;14.80;99.90
37938;DHT22;23763;48.130;11.602;2023-05-17T07:17:32;15.00;99.90
37938;DHT22;23763;48.130;11.602;2023-05-17T07:19:57;14.80;99.90
37938;DHT22;23763;48.130;11.602;2023-05-17T07:22:23;15.30;99.90
37938;DHT22;23763;48.130;11.602;2023-05-17T07:24:49;15.60;99.90
37938;DHT22;23763;48.130;11.602;2023-05-17T07:27:15;15.60;99.90
37938;DHT22;23763;48.130;11.602;2023-05-17T07:29:41;16.20;99.90
37938;DHT22;23763;48.130;11.602;2023-05-17T07:32:07;16.20;99.90
37938;DHT22;23763;48.130;11.602;2023-05-17T07:34:34;16.50;99.60
37938;DHT22;23763;48.130;11.602;2023-05-17T07:37:00;16.70;99.90
37938;DHT22;23763;48.130;11.602;2023-05-17T07:39:26;16.70;98.40
37938;DHT22;23763;48.130;11.602;2023-05-17T07:41:51;17.00;98.70
37938;DHT22;23763;48.130;11.602;2023-05-17T07:44:17;17.70;96.90
37938;DHT22;23763;48.130;11.602;2023-05-17T07:46:43;18.70;95.60
37938;DHT22;23763;48.130;11.602;2023-05-17T07:49:08;19.80;94.30
37938;DHT22;23763;48.130;11.602;2023-05-17T07:51:34;20.70;92.80
37938;DHT22;23763;48.130;11.602;2023-05-17T07:54:00;21.30;89.80
37938;DHT22;23763;48.130;11.602;2023-05-17T07:56:28;22.00;86.10
37938;DHT22;23763;48.130;11.602;2023-05-17T07:58:54;21.90;84.70
37938;DHT22;23763;48.130;11.602;2023-05-17T08:01:20;21.70;82.90
37938;DHT22;23763;48.130;11.602;2023-05-17T08:03:47;20.60;83.60
37938;DHT22;23763;48.130;11.602;2023-05-17T08:06:16;19.60;88.00
37938;DHT22;23763;48.130;11.602;2023-05-17T08:08:43;19.50;87.10
37938;DHT22;23763;48.130;11.602;2023-05-17T08:11:10;18.80;89.80
37938;DHT22;23763;48.130;11.602;2023-05-17T08:13:36;18.40;90.10
37938;DHT22;23763;48.130;11.602;2023-05-17T08:16:01;17.70;91.30
37938;DHT22;23763;48.130;11.602;2023-05-17T08:18:31;17.30;91.90
37938;DHT22;23763;48.130;11.602;2023-05-17T08:20:57;17.00;92.10
37938;DHT22;23763;48.130;11.602;2023-05-17T08:23:22;17.00;92.90
37938;DHT22;23763;48.130;11.602;2023-05-17T08:25:48;17.70;91.60
37938;DHT22;23763;48.130;11.602;2023-05-17T08:28:14;17.70;91.10
37938;DHT22;23763;48.130;11.602;2023-05-17T08:30:39;17.50;90.90
37938;DHT22;23763;48.130;11.602;2023-05-17T08:33:06;17.20;91.40
37938;DHT22;23763;48.130;11.602;2023-05-17T08:35:33;18.90;90.50
37938;DHT22;23763;48.130;11.602;2023-05-17T08:37:59;20.50;85.50
37938;DHT22;23763;48.130;11.602;2023-05-17T08:40:26;21.80;80.00
37938;DHT22;23763;48.130;11.602;2023-05-17T08:42:51;23.10;78.70
37938;DHT22;23763;48.130;11.602;2023-05-17T08:45:17;24.40;73.80
37938;DHT22;23763;48.130;11.602;2023-05-17T08:47:44;24.80;71.30
37938;DHT22;23763;48.130;11.602;2023-05-17T08:50:11;25.80;68.70
37938;DHT22;23763;48.130;11.602;2023-05-17T08:52:38;25.90;66.50
37938;DHT22;23763;48.130;11.602;2023-05-17T08:55:05;25.40;66.80
37938;DHT22;23763;48.130;11.602;2023-05-17T08:57:33;25.60;66.60
37938;DHT22;23763;48.130;11.602;2023-05-17T09:00:00;25.30;66.50
37938;DHT22;23763;48.130;11.602;2023-05-17T09:02:30;24.50;69.10
37938;DHT22;23763;48.130;11.602;2023-05-17T09:04:56;24.10;70.00
37938;DHT22;23763;48.130;11.602;2023-05-17T09:07:22;22.30;69.90
37938;DHT22;23763;48.130;11.602;2023-05-17T09:09:50;21.70;71.60
37938;DHT22;23763;48.130;11.602;2023-05-17T09:12:18;21.70;72.90
37938;DHT22;23763;48.130;11.602;2023-05-17T09:14:43;21.70;72.10
37938;DHT22;23763;48.130;11.602;2023-05-17T09:17:16;21.50;72.90
37938;DHT22;23763;48.130;11.602;2023-05-17T09:19:43;21.40;72.90
37938;DHT22;23763;48.130;11.602;2023-05-17T09:22:12;21.40;73.60
37938;DHT22;23763;48.130;11.602;2023-05-17T09:24:39;20.80;74.40
37938;DHT22;23763;48.130;11.602;2023-05-17T09:27:05;19.90;77.50
37938;DHT22;23763;48.130;11.602;2023-05-17T09:29:32;19.80;77.60
37938;DHT22;23763;48.130;11.602;2023-05-17T09:32:17;19.60;78.80
37938;DHT22;23763;48.130;11.602;2023-05-17T09:34:45;19.70;79.60
37938;DHT22;23763;48.130;11.602;2023-05-17T09:37:15;19.20;79.00
37938;DHT22;23763;48.130;11.602;2023-05-17T09:39:43;18.70;80.10
37938;DHT22;23763;48.130;11.602;2023-05-17T09:42:12;18.00;79.80
37938;DHT22;23763;48.130;11.602;2023-05-17T09:44:51;17.60;81.90
37938;DHT22;23763;48.130;11.602;2023-05-17T09:47:25;17.30;82.80
37938;DHT22;23763;48.130;11.602;2023-05-17T09:49:51;16.90;85.60
37938;DHT22;23763;48.130;11.602;2023-05-17T09:52:18;16.90;87.60
37938;DHT22;23763;48.130;11.602;2023-05-17T09:54:55;17.00;86.50
37938;DHT22;23763;48.130;11.602;2023-05-17T09:57:22;17.10;86.00
37938;DHT22;23763;48.130;11.602;2023-05-17T09:59:48;17.30;84.70
37938;DHT22;23763;48.130;11.602;2023-05-17T10:02:20;16.80;83.60
37938;DHT22;23763;48.130;11.602;2023-05-17T10:04:51;16.90;86.60
37938;DHT22;23763;48.130;11.602;2023-05-17T10:07:18;17.00;86.60
37938;DHT22;23763;48.130;11.602;2023-05-17T10:09:48;17.20;87.80
37938;DHT22;23763;48.130;11.602;2023-05-17T10:12:17;17.30;86.10
37938;DHT22;23763;48.130;11.602;2023-05-17T10:14:44;17.30;86.40
37938;DHT22;23763;48.130;11.602;2023-05-17T10:17:10;17.30;86.40
37938;DHT22;23763;48.130;11.602;2023-05-17T10:19:37;17.50;86.10
37938;DHT22;23763;48.130;11.602;2023-05-17T10:22:05;17.20;86.00
37938;DHT22;23763;48.130;11.602;2023-05-17T10:24:31;17.30;85.60
37938;DHT22;23763;48.130;11.602;2023-05-17T10:26:57;17.00;86.90
37938;DHT22;23763;48.130;11.602;2023-05-17T10:29:24;16.20;89.40
37938;DHT22;23763;48.130;11.602;2023-05-17T10:31:50;16.10;90.00
37938;DHT22;23763;48.130;11.602;2023-05-17T10:34:17;16.00;90.50
37938;DHT22;23763;48.130;11.602;2023-05-17T10:36:43;16.10;91.10
37938;DHT22;23763;48.130;11.602;2023-05-17T10:39:09;16.00;89.60
37938;DHT22;23763;48.130;11.602;2023-05-17T10:41:36;16.10;90.30
37938;DHT22;23763;48.130;11.602;2023-05-17T10:44:03;16.10;90.00
37938;DHT22;23763;48.130;11.602;2023-05-17T10:46:29;16.20;89.80
37938;DHT22;23763;48.130;11.602;2023-05-17T10:48:57;16.60;89.90
37938;DHT22;23763;48.130;11.602;2023-05-17T10:51:33;16.60;87.80
37938;DHT22;23763;48.130;11.602;2023-05-17T10:54:10;16.40;86.50
37938;DHT22;23763;48.130;11.602;2023-05-17T10:56:56;16.00;89.30
37938;DHT22;23763;48.130;11.602;2023-05-17T10:59:26;15.80;86.70
37938;DHT22;23763;48.130;11.602;2023-05-17T11:02:07;15.90;84.60
37938;DHT22;23763;48.130;11.602;2023-05-17T11:04:48;16.00;83.50
37938;DHT22;23763;48.130;11.602;2023-05-17T11:12:35;16.30;90.30
37938;DHT22;23763;48.130;11.602;2023-05-17T11:15:14;16.60;88.00
37938;DHT22;23763;48.130;11.602;2023-05-17T11:22:58;17.00;87.90
37938;DHT22;23763;48.130;11.602;2023-05-17T11:25:27;16.80;87.70
37938;DHT22;23763;48.130;11.602;2023-05-17T11:27:53;16.40;85.90
37938;DHT22;23763;48.130;11.602;2023-05-17T11:30:23;16.00;86.10
37938;DHT22;23763;48.130;11.602;2023-05-17T11:32:58;15.40;84.90
37938;DHT22;23763;48.130;11.602;2023-05-17T11:35:31;15.10;87.20
37938;DHT22;23763;48.130;11.602;2023-05-17T11:38:22;15.30;87.60
37938;DHT22;23763;48.130;11.602;2023-05-17T11:40:54;15.90;87.80
37938;DHT22;23763;48.130;11.602;2023-05-17T11:43:21;16.20;86.40
37938;DHT22;23763;48.130;11.602;2023-05-17T11:45:48;16.50;84.60
37938;DHT22;23763;48.130;11.602;2023-05-17T11:48:16;16.80;83.60
37938;DHT22;23763;48.130;11.602;2023-05-17T11:50:44;16.90;81.50
37938;DHT22;23763;48.130;11.602;2023-05-17T11:53:11;16.50;81.80
37938;DHT22;23763;48.130;11.602;2023-05-17T11:58:09;15.80;82.70
37938;DHT22;23763;48.130;11.602;2023-05-17T12:00:36;15.40;83.80
37938;DHT22;23763;48.130;11.602;2023-05-17T12:03:20;15.30;87.40
37938;DHT22;23763;48.130;11.602;2023-05-17T12:05:48;15.50;87.60
37938;DHT22;23763;48.130;11.602;2023-05-17T12:08:19;16.00;86.40
37938;DHT22;23763;48.130;11.602;2023-05-17T12:10:55;16.50;86.50
37938;DHT22;23763;48.130;11.602;2023-05-17T12:13:23;17.00;86.10
37938;DHT22;23763;48.130;11.602;2023-05-17T12:15:56;17.40;84.50
37938;DHT22;23763;48.130;11.602;2023-05-17T12:18:23;17.60;81.00
37938;DHT22;23763;48.130;11.602;2023-05-17T12:20:59;17.40;80.40
37938;DHT22;23763;48.130;11.602;2023-05-17T12:26:10;17.20;80.80
37938;DHT22;23763;48.130;11.602;2023-05-17T12:28:41;17.00;82.30
37938;DHT22;23763;48.130;11.602;2023-05-17T12:31:55;16.80;83.10
37938;DHT22;23763;48.130;11.602;2023-05-17T12:33:56;16.80;82.30
37938;DHT22;23763;48.130;11.602;2023-05-17T12:36:23;16.90;82.20
37938;DHT22;23763;48.130;11.602;2023-05-17T12:38:50;17.00;80.10
37938;DHT22;23763;48.130;11.602;2023-05-17T12:41:16;17.00;79.40
37938;DHT22;23763;48.130;11.602;2023-05-17T12:43:43;17.00;78.80
37938;DHT22;23763;48.130;11.602;2023-05-17T12:46:15;17.00;79.80
37938;DHT22;23763;48.130;11.602;2023-05-17T12:48:46;17.00;80.60
37938;DHT22;23763;48.130;11.602;2023-05-17T12:51:22;16.70;85.90
37938;DHT22;23763;48.130;11.602;2023-05-17T12:53:53;16.60;85.60
37938;DHT22;23763;48.130;11.602;2023-05-17T12:56:25;16.80;85.30
37938;DHT22;23763;48.130;11.602;2023-05-17T13:04:11;17.50;79.50
37938;DHT22;23763;48.130;11.602;2023-05-17T13:06:45;17.40;78.50
37938;DHT22;23763;48.130;11.602;2023-05-17T13:09:11;17.10;80.40
37938;DHT22;23763;48.130;11.602;2023-05-17T13:11:36;17.00;81.50
37938;DHT22;23763;48.130;11.602;2023-05-17T13:14:09;16.90;80.50
37938;DHT22;23763;48.130;11.602;2023-05-17T13:16:37;16.80;79.00
37938;DHT22;23763;48.130;11.602;2023-05-17T13:19:13;16.80;78.60
37938;DHT22;23763;48.130;11.602;2023-05-17T13:21:39;16.70;80.10
37938;DHT22;23763;48.130;11.602;2023-05-17T13:24:05;16.60;82.50
37938;DHT22;23763;48.130;11.602;2023-05-17T13:26:30;16.40;82.50
37938;DHT22;23763;48.130;11.602;2023-05-17T13:28:56;16.50;82.70
37938;DHT22;23763;48.130;11.602;2023-05-17T13:31:22;16.50;83.70
37938;DHT22;23763;48.130;11.602;2023-05-17T13:33:48;16.50;80.80
37938;DHT22;23763;48.130;11.602;2023-05-17T13:36:15;16.50;81.00
37938;DHT22;23763;48.130;11.602;2023-05-17T13:38:41;16.30;80.70
37938;DHT22;23763;48.130;11.602;2023-05-17T13:41:07;16.20;83.00
37938;DHT22;23763;48.130;11.602;2023-05-17T13:43:34;16.40;82.40
37938;DHT22;23763;48.130;11.602;2023-05-17T13:46:00;16.50;81.50
37938;DHT22;23763;48.130;11.602;2023-05-17T13:48:26;16.50;82.60
37938;DHT22;23763;48.130;11.602;2023-05-17T13:50:52;16.70;82.80
37938;DHT22;23763;48.130;11.602;2023-05-17T13:53:18;16.80;85.80
37938;DHT22;23763;48.130;11.602;2023-05-17T13:55:44;17.00;84.20
37938;DHT22;23763;48.130;11.602;2023-05-17T13:58:09;17.00;83.60
37938;DHT22;23763;48.130;11.602;2023-05-17T14:00:35;16.90;84.00
37938;DHT22;23763;48.130;11.602;2023-05-17T14:03:02;17.00;84.60
37938;DHT22;23763;48.130;11.602;2023-05-17T14:05:28;17.20;85.50
37938;DHT22;23763;48.130;11.602;2023-05-17T14:07:55;17.30;85.40
37938;DHT22;23763;48.130;11.602;2023-05-17T14:10:21;17.00;83.60
37938;DHT22;23763;48.130;11.602;2023-05-17T14:12:47;16.90;84.00
37938;DHT22;23763;48.130;11.602;2023-05-17T14:15:12;16.90;84.00
37938;DHT22;23763;48.130;11.602;2023-05-17T14:17:38;16.70;82.90
37938;DHT22;23763;48.130;11.602;2023-05-17T14:20:04;16.60;83.30
37938;DHT22;23763;48.130;11.602;2023-05-17T14:22:30;16.50;83.60
37938;DHT22;23763;48.130;11.602;2023-05-17T14:24:56;16.60;84.30
37938;DHT22;23763;48.130;11.602;2023-05-17T14:27:21;16.70;84.80
37938;DHT22;23763;48.130;11.602;2023-05-17T14:29:47;16.70;84.80
37938;DHT22;23763;48.130;11.602;2023-05-17T14:32:13;16.70;84.70
37938;DHT22;23763;48.130;11.602;2023-05-17T14:34:39;16.80;84.80
37938;DHT22;23763;48.130;11.602;2023-05-17T14:37:05;16.80;86.10
37938;DHT22;23763;48.130;11.602;2023-05-17T14:39:31;16.90;85.60
37938;DHT22;23763;48.130;11.602;2023-05-17T14:41:57;17.30;84.00
37938;DHT22;23763;48.130;11.602;2023-05-17T14:44:22;17.10;83.50
37938;DHT22;23763;48.130;11.602;2023-05-17T14:46:48;17.20;83.50
37938;DHT22;23763;48.130;11.602;2023-05-17T14:49:13;17.30;83.70
37938;DHT22;23763;48.130;11.602;2023-05-17T14:51:39;17.20;83.10
37938;DHT22;23763;48.130;11.602;2023-05-17T14:54:04;17.20;82.40
37938;DHT22;23763;48.130;11.602;2023-05-17T14:56:30;17.30;82.50
37938;DHT22;23763;48.130;11.602;2023-05-17T14:58:56;17.30;83.10
37938;DHT22;23763;48.130;11.602;2023-05-17T15:01:22;17.50;82.40
37938;DHT22;23763;48.130;11.602;2023-05-17T15:03:48;17.40;81.70
37938;DHT22;23763;48.130;11.602;2023-05-17T15:06:14;17.50;82.20
37938;DHT22;23763;48.130;11.602;2023-05-17T15:08:40;17.80;82.50
37938;DHT22;23763;48.130;11.602;2023-05-17T15:11:05;18.00;82.90
37938;DHT22;23763;48.130;11.602;2023-05-17T15:13:31;18.20;81.40
37938;DHT22;23763;48.130;11.602;2023-05-17T15:15:57;18.00;81.30
37938;DHT22;23763;48.130;11.602;2023-05-17T15:18:23;17.80;82.70
37938;DHT22;23763;48.130;11.602;2023-05-17T15:20:49;17.80;82.50
37938;DHT22;23763;48.130;11.602;2023-05-17T15:23:14;16.90;82.70
37938;DHT22;23763;48.130;11.602;2023-05-17T15:25:40;16.40;85.20
37938;DHT22;23763;48.130;11.602;2023-05-17T15:28:06;16.30;87.40
37938;DHT22;23763;48.130;11.602;2023-05-17T15:30:31;16.10;87.40
37938;DHT22;23763;48.130;11.602;2023-05-17T15:32:58;16.00;88.00
37938;DHT22;23763;48.130;11.602;2023-05-17T15:35:24;15.90;88.00
37938;DHT22;23763;48.130;11.602;2023-05-17T15:37:52;15.60;89.50
37938;DHT22;23763;48.130;11.602;2023-05-17T15:40:18;15.60;89.10
37938;DHT22;23763;48.130;11.602;2023-05-17T15:42:49;15.60;88.30
37938;DHT22;23763;48.130;11.602;2023-05-17T15:45:16;15.40;88.70
37938;DHT22;23763;48.130;11.602;2023-05-17T15:47:41;15.40;88.60
37938;DHT22;23763;48.130;11.602;2023-05-17T15:50:07;15.50;88.70